createdAt,value
2023-02-28T09:52:30.248Z,2.25
2023-02-28T09:55:03.957Z,1.73
2023-02-28T09:57:40.172Z,2.17
2023-02-28T10:00:19.588Z,2.33
2023-02-28T10:03:19.504Z,2.50
2023-02-28T10:05:55.544Z,3.00
2023-02-28T10:08:30.944Z,3.15
2023-02-28T10:13:38.858Z,3.22
2023-02-28T10:16:13.705Z,2.95
2023-02-28T10:18:48.263Z,3.30
2023-02-28T10:21:23.315Z,4.47
2023-02-28T10:24:06.667Z,4.03
2023-02-28T10:26:36.240Z,4.95
2023-02-28T10:29:06.115Z,5.70
2023-02-28T10:31:36.141Z,4.40
2023-02-28T10:34:07.279Z,5.28
2023-02-28T10:36:36.819Z,5.45
2023-02-28T10:39:38.691Z,5.65
2023-02-28T10:42:21.157Z,6.25
2023-02-28T10:44:50.526Z,6.38
2023-02-28T10:47:21.877Z,5.90
2023-02-28T10:49:54.098Z,6.13
2023-02-28T10:52:38.618Z,6.90
2023-02-28T10:55:23.186Z,5.45
2023-02-28T10:57:53.545Z,5.38
2023-02-28T11:00:26.460Z,6.57
2023-02-28T11:02:56.192Z,5.90
2023-02-28T11:05:29.721Z,5.00
2023-02-28T11:08:07.231Z,5.07
2023-02-28T11:10:38.398Z,4.63
2023-02-28T11:13:08.486Z,4.38
2023-02-28T11:15:38.331Z,4.28
2023-02-28T11:18:23.724Z,4.68
2023-02-28T11:20:55.288Z,4.72
2023-02-28T11:23:29.286Z,4.72
2023-02-28T11:26:03.127Z,5.75
2023-02-28T11:31:07.786Z,4.28
2023-02-28T11:33:46.199Z,4.07
2023-02-28T11:36:20.245Z,4.57
2023-02-28T11:38:51.654Z,4.40
2023-02-28T11:41:45.485Z,4.57
2023-02-28T11:44:34.593Z,4.93
2023-02-28T11:47:10.292Z,4.70
2023-02-28T11:49:49.554Z,4.60
2023-02-28T11:52:31.714Z,5.47
2023-02-28T11:55:10.273Z,4.07
2023-02-28T11:57:55.571Z,3.97
2023-02-28T12:00:41.325Z,4.32
2023-02-28T12:03:28.735Z,4.35
2023-02-28T12:06:11.361Z,3.85
2023-02-28T12:08:53.688Z,3.90
2023-02-28T12:11:35.249Z,3.58
2023-02-28T12:14:35.249Z,3.78
2023-02-28T12:17:17.072Z,4.68
2023-02-28T12:19:56.246Z,3.63
2023-02-28T12:22:32.973Z,4.15
2023-02-28T12:25:41.964Z,3.83
2023-02-28T12:28:14.368Z,4.05
2023-02-28T12:30:53.239Z,4.30
2023-02-28T12:33:26.996Z,4.10
2023-02-28T12:35:59.083Z,4.18
2023-02-28T12:38:31.865Z,3.90
2023-02-28T12:41:05.280Z,3.70
2023-02-28T12:43:39.012Z,3.90
2023-02-28T12:46:15.633Z,4.00
2023-02-28T12:48:48.896Z,3.33
2023-02-28T12:51:19.921Z,3.83
2023-02-28T12:54:06.073Z,3.92
2023-02-28T12:56:46.981Z,6.00
2023-02-28T12:59:25.096Z,4.45
2023-02-28T13:02:22.439Z,4.05
2023-02-28T13:05:27.453Z,3.50
2023-02-28T13:08:26.139Z,3.65
2023-02-28T13:10:56.352Z,3.83
2023-02-28T13:13:30.723Z,3.80
2023-02-28T13:16:06.512Z,3.78
2023-02-28T13:18:40.671Z,3.13
2023-02-28T13:21:23.764Z,3.95
2023-02-28T13:24:02.262Z,4.35
2023-02-28T13:27:10.542Z,3.97
2023-02-28T13:29:41.547Z,5.60
2023-02-28T13:32:37.680Z,4.15
2023-02-28T13:35:46.127Z,3.90
2023-02-28T13:38:36.874Z,4.45
2023-02-28T13:41:43.536Z,3.47
2023-02-28T13:44:15.705Z,3.63
2023-02-28T13:47:23.332Z,4.75
2023-02-28T13:49:54.393Z,3.95
2023-02-28T13:52:27.290Z,3.75
2023-02-28T13:55:29.495Z,3.60
2023-02-28T13:58:25.068Z,4.03
2023-02-28T14:01:12.728Z,4.13
2023-02-28T14:04:09.731Z,4.32
2023-02-28T14:06:41.206Z,4.65
2023-02-28T14:09:26.091Z,4.50
2023-02-28T14:11:56.170Z,4.45
2023-02-28T14:15:02.010Z,4.18
2023-02-28T14:17:31.982Z,4.55
2023-02-28T14:20:01.858Z,4.43
2023-02-28T14:22:55.059Z,4.30
2023-02-28T14:25:35.147Z,4.57
2023-02-28T14:28:16.149Z,4.90
2023-02-28T14:31:02.968Z,4.15
2023-02-28T14:33:49.755Z,4.40
2023-02-28T14:36:27.507Z,4.97
2023-02-28T14:39:00.323Z,4.75
2023-02-28T14:41:36.568Z,3.65
2023-02-28T14:44:17.021Z,4.55
2023-02-28T14:46:48.315Z,4.65
2023-02-28T14:49:22.996Z,4.93
2023-02-28T14:52:06.986Z,4.38
2023-02-28T14:54:36.730Z,4.25
2023-02-28T14:57:07.773Z,4.72
2023-02-28T14:59:38.723Z,4.55
2023-02-28T15:02:22.672Z,4.10
2023-02-28T15:05:00.381Z,4.32
2023-02-28T15:07:32.849Z,4.25
2023-02-28T15:10:19.840Z,3.72
2023-02-28T15:12:54.982Z,3.38
2023-02-28T15:15:31.944Z,3.28
2023-02-28T15:18:16.326Z,3.90
2023-02-28T15:20:47.569Z,3.67
2023-02-28T15:23:18.069Z,3.55
2023-02-28T15:25:48.141Z,3.95
2023-02-28T15:28:22.330Z,3.28
2023-02-28T15:31:01.105Z,3.38
2023-02-28T15:33:32.290Z,3.78
2023-02-28T15:36:18.643Z,4.13
2023-02-28T15:38:55.080Z,3.75
2023-02-28T15:41:29.629Z,4.15
2023-02-28T15:44:27.941Z,5.28
2023-02-28T15:47:02.499Z,4.85
2023-02-28T15:49:42.737Z,5.15
2023-02-28T15:52:20.398Z,5.43
2023-02-28T15:57:24.278Z,5.47
2023-02-28T15:59:58.247Z,5.53
2023-02-28T16:02:35.195Z,5.53
2023-02-28T16:05:28.973Z,4.85
2023-02-28T16:07:59.890Z,4.88
2023-02-28T16:10:31.099Z,5.35
2023-02-28T16:13:00.949Z,6.45
2023-02-28T16:15:35.130Z,6.45
2023-02-28T16:18:05.009Z,7.17
2023-02-28T16:20:34.602Z,7.22
2023-02-28T16:23:04.255Z,8.27
2023-02-28T16:25:40.726Z,6.88
2023-02-28T16:28:17.873Z,5.55
2023-02-28T16:30:48.877Z,6.38
2023-02-28T16:33:18.745Z,7.03
2023-02-28T16:35:48.017Z,18.30
2023-02-28T16:38:17.624Z,21.63
2023-02-28T16:40:47.609Z,17.80
2023-02-28T16:43:22.222Z,16.40
2023-02-28T16:46:01.201Z,14.88
2023-02-28T16:48:31.808Z,16.23
2023-02-28T16:51:01.169Z,15.48
2023-02-28T16:53:30.725Z,15.30
2023-02-28T16:56:02.973Z,15.23
2023-02-28T16:58:32.811Z,15.68
2023-02-28T17:01:03.471Z,16.65
2023-02-28T17:03:34.228Z,17.48
2023-02-28T17:06:03.748Z,17.30
2023-02-28T17:08:34.259Z,18.05
2023-02-28T17:11:03.808Z,20.42
2023-02-28T17:13:35.522Z,20.20
2023-02-28T17:16:06.912Z,21.05
2023-02-28T17:18:37.492Z,21.95
2023-02-28T17:21:11.852Z,23.35
2023-02-28T17:23:41.754Z,24.90
2023-02-28T17:26:15.690Z,27.45
2023-02-28T17:28:45.599Z,25.50
2023-02-28T17:31:18.590Z,26.58
2023-02-28T17:33:48.222Z,26.02
2023-02-28T17:36:19.973Z,28.98
2023-02-28T17:38:50.001Z,32.97
2023-02-28T17:41:19.224Z,31.30
2023-02-28T17:43:48.917Z,36.05
2023-02-28T17:46:21.724Z,36.95
2023-02-28T17:48:52.347Z,34.92
2023-02-28T17:51:24.840Z,35.17
2023-02-28T17:53:54.752Z,33.78
2023-02-28T17:56:25.959Z,33.03
2023-02-28T17:58:57.045Z,31.13
2023-02-28T18:01:28.496Z,32.90
2023-02-28T18:03:58.563Z,33.67
2023-02-28T18:06:33.318Z,39.45
2023-02-28T18:09:03.220Z,36.03
2023-02-28T18:11:44.590Z,39.15
2023-02-28T18:14:14.390Z,41.55
2023-02-28T18:16:45.827Z,39.67
2023-02-28T18:19:17.790Z,36.90
2023-02-28T18:21:49.779Z,34.70
2023-02-28T18:24:20.674Z,32.20
2023-02-28T18:26:51.104Z,30.48
2023-02-28T18:29:23.157Z,33.63
2023-02-28T18:31:55.028Z,30.33
2023-02-28T18:34:26.146Z,34.05
2023-02-28T18:36:56.468Z,35.72
2023-02-28T18:39:26.852Z,41.28
2023-02-28T18:41:57.824Z,40.80
2023-02-28T18:44:27.667Z,38.03
2023-02-28T18:46:58.479Z,35.75
2023-02-28T18:49:28.226Z,38.63
2023-02-28T18:51:58.694Z,37.90
2023-02-28T18:54:28.682Z,39.42
2023-02-28T18:56:58.023Z,40.95
2023-02-28T18:59:28.345Z,43.60
2023-02-28T19:01:59.458Z,44.17
2023-02-28T19:04:29.138Z,46.53
2023-02-28T19:06:59.835Z,43.95
2023-02-28T19:09:32.970Z,43.08
2023-02-28T19:12:02.447Z,46.25
2023-02-28T19:14:32.480Z,39.53
2023-02-28T19:17:03.480Z,25.88
2023-02-28T19:19:33.195Z,16.95
2023-02-28T19:22:02.629Z,12.80
2023-02-28T19:24:32.415Z,15.02
2023-02-28T19:27:01.846Z,20.00
2023-02-28T19:29:31.477Z,21.23
2023-02-28T19:32:04.228Z,20.80
2023-02-28T19:34:34.792Z,16.75
2023-02-28T19:37:04.069Z,11.52
2023-02-28T19:39:41.272Z,11.30
2023-02-28T19:42:11.187Z,10.48
2023-02-28T19:44:41.479Z,9.27
2023-02-28T19:47:12.391Z,8.15
2023-02-28T19:49:42.462Z,9.85
2023-02-28T19:52:15.087Z,9.90
2023-02-28T19:54:45.306Z,9.50
2023-02-28T19:57:15.138Z,7.88
2023-02-28T19:59:45.710Z,8.40
2023-02-28T20:02:18.608Z,6.97
2023-02-28T20:04:50.011Z,7.25
2023-02-28T20:07:20.825Z,6.32
2023-02-28T20:09:51.050Z,6.93
2023-02-28T20:12:24.429Z,6.93
2023-02-28T20:14:56.142Z,7.32
2023-02-28T20:17:29.653Z,6.03
2023-02-28T20:19:59.359Z,6.60
2023-02-28T20:22:29.014Z,7.70
2023-02-28T20:24:58.663Z,6.78
2023-02-28T20:27:28.552Z,6.00
2023-02-28T20:29:58.344Z,6.90
2023-02-28T20:32:29.547Z,6.75
2023-02-28T20:34:59.239Z,6.63
2023-02-28T20:37:32.376Z,5.95
2023-02-28T20:40:04.467Z,6.25
2023-02-28T20:42:33.721Z,4.97
2023-02-28T20:45:03.578Z,5.47
2023-02-28T20:47:34.293Z,6.47
2023-02-28T20:50:03.903Z,5.45
2023-02-28T20:52:33.173Z,6.35
2023-02-28T20:55:02.891Z,5.47
2023-02-28T20:57:32.728Z,4.55
2023-02-28T21:00:02.447Z,5.20
2023-02-28T21:02:33.318Z,4.57
2023-02-28T21:05:03.224Z,5.40
2023-02-28T21:07:32.722Z,4.90
2023-02-28T21:10:02.639Z,5.05
2023-02-28T21:12:32.181Z,4.95
2023-02-28T21:15:01.941Z,4.85
2023-02-28T21:17:31.357Z,5.13
2023-02-28T21:20:02.405Z,4.70
2023-02-28T21:22:31.883Z,5.47
2023-02-28T21:25:01.433Z,5.35
2023-02-28T21:27:30.803Z,4.40
2023-02-28T21:30:00.394Z,5.40
2023-02-28T21:32:29.773Z,4.00
2023-02-28T21:34:59.321Z,4.13
2023-02-28T21:37:30.091Z,4.15
2023-02-28T21:39:59.664Z,5.30
2023-02-28T21:42:30.281Z,4.95
2023-02-28T21:45:01.069Z,4.85
2023-02-28T21:47:31.243Z,5.32
2023-02-28T21:50:00.885Z,5.38
2023-02-28T21:52:31.566Z,5.10
2023-02-28T21:55:01.228Z,4.32
2023-02-28T21:57:30.534Z,4.57
2023-02-28T22:00:00.306Z,5.30
2023-02-28T22:02:30.446Z,16.48
2023-02-28T22:05:03.606Z,8.05
2023-02-28T22:07:34.235Z,9.73
2023-02-28T22:10:04.098Z,6.28
2023-02-28T22:12:33.504Z,5.20
2023-02-28T22:15:03.014Z,5.20
2023-02-28T22:17:32.327Z,5.47
2023-02-28T22:20:01.845Z,5.45
2023-02-28T22:22:31.148Z,5.50
2023-02-28T22:25:02.084Z,5.57
2023-02-28T22:27:31.550Z,4.60
2023-02-28T22:30:01.622Z,4.25
2023-02-28T22:32:31.067Z,3.75
2023-02-28T22:35:00.824Z,4.10
2023-02-28T22:37:30.051Z,4.40
2023-02-28T22:40:01.128Z,4.35
2023-02-28T22:42:33.425Z,3.78
2023-02-28T22:45:03.188Z,3.72
2023-02-28T22:47:32.590Z,3.75
2023-02-28T22:50:02.324Z,4.72
2023-02-28T22:52:31.532Z,3.75
2023-02-28T22:55:02.827Z,3.65
2023-02-28T22:57:32.058Z,3.80
2023-02-28T23:00:02.266Z,3.67
2023-02-28T23:02:31.634Z,3.80
2023-02-28T23:05:01.237Z,3.85
2023-02-28T23:07:30.533Z,5.32
2023-02-28T23:10:01.526Z,3.78
2023-02-28T23:12:32.555Z,4.20
2023-02-28T23:15:02.308Z,4.10
2023-02-28T23:17:33.876Z,5.55
2023-02-28T23:20:04.037Z,4.38
2023-02-28T23:22:33.418Z,4.75
2023-02-28T23:25:04.846Z,4.20
2023-02-28T23:27:34.849Z,5.20
2023-02-28T23:30:04.814Z,4.53
2023-02-28T23:32:34.125Z,4.35
2023-02-28T23:35:03.794Z,4.45
2023-02-28T23:37:32.995Z,4.75
2023-02-28T23:40:04.572Z,3.92
2023-02-28T23:42:33.949Z,4.53
2023-02-28T23:45:03.688Z,4.88
2023-02-28T23:47:33.190Z,5.03
2023-02-28T23:50:03.083Z,5.00
2023-02-28T23:52:32.417Z,5.28
2023-02-28T23:55:03.554Z,4.95
2023-02-28T23:57:33.016Z,4.50
